Time;durP1;ratioP1;P1;durP2;ratioP2;P2;SDS_P1;SDS_P2;PMS_P1;PMS_P2;Temp;Humidity;BMP_temperature;BMP_pressure;BME280_temperature;BME280_humidity;BME280_pressure;Samples;Min_cycle;Max_cycle;Signal;HPM_P1;HPM_P2
2022/10/20 00:00:15;;;;;;;7.22;6.03;;;10.00;99.90;;;;;;2089794;28;20389;-72
2022/10/20 00:01:17;;;;;;;10.07;6.40;;;10.00;99.90;;;;;;2091641;28;20116;-72
2022/10/20 00:02:18;;;;;;;9.23;6.07;;;10.00;99.90;;;;;;2098284;28;20048;-72
2022/10/20 00:03:18;;;;;;;11.20;7.38;;;10.00;99.90;;;;;;2100060;28;20070;-72
2022/10/20 00:04:19;;;;;;;9.57;6.80;;;10.00;99.90;;;;;;2091809;28;20044;-72
2022/10/20 00:05:20;;;;;;;8.77;6.60;;;10.00;99.90;;;;;;2091527;28;20021;-72
2022/10/20 00:06:23;;;;;;;12.38;7.70;;;10.00;99.90;;;;;;2090282;28;20029;-72
2022/10/20 00:07:24;;;;;;;12.15;7.68;;;10.00;99.90;;;;;;2091512;28;20040;-72
2022/10/20 00:08:24;;;;;;;9.75;7.38;;;10.00;99.90;;;;;;2089613;28;20020;-72
2022/10/20 00:09:25;;;;;;;8.93;6.68;;;10.00;99.90;;;;;;2090320;28;20044;-72
2022/10/20 00:10:25;;;;;;;10.88;8.10;;;9.90;99.90;;;;;;2085029;28;20079;-72
2022/10/20 00:11:27;;;;;;;9.82;7.13;;;10.00;99.90;;;;;;2091417;28;20028;-72
2022/10/20 00:12:28;;;;;;;10.60;7.60;;;9.90;99.90;;;;;;2091036;28;20346;-72
2022/10/20 00:13:28;;;;;;;9.82;7.97;;;9.90;99.90;;;;;;2090607;28;20074;-73
2022/10/20 00:14:29;;;;;;;8.73;6.38;;;9.90;99.90;;;;;;2091362;28;20025;-72
2022/10/20 00:15:29;;;;;;;8.98;6.63;;;9.90;99.90;;;;;;2091087;28;20025;-73
2022/10/20 00:16:35;;;;;;;11.60;7.05;;;9.90;99.90;;;;;;2090150;28;20048;-72
2022/10/20 00:17:35;;;;;;;8.77;6.75;;;9.90;99.90;;;;;;2090890;28;20025;-72
2022/10/20 00:18:37;;;;;;;13.43;7.75;;;9.90;99.90;;;;;;2090808;28;20024;-72
2022/10/20 00:19:37;;;;;;;13.27;6.68;;;9.90;99.90;;;;;;2090983;28;20033;-72
2022/10/20 00:20:39;;;;;;;10.20;7.75;;;9.90;99.90;;;;;;2094353;28;20468;-72
2022/10/20 00:21:39;;;;;;;11.65;7.55;;;9.90;99.90;;;;;;2093180;28;20029;-73
2022/10/20 00:22:40;;;;;;;13.63;7.32;;;9.90;99.90;;;;;;2091917;28;20028;-72
2022/10/20 00:23:40;;;;;;;10.45;7.65;;;9.90;99.90;;;;;;2089837;28;20032;-72
2022/10/20 00:24:41;;;;;;;8.25;6.97;;;9.90;99.90;;;;;;2090036;28;20427;-72
2022/10/20 00:25:42;;;;;;;11.82;6.75;;;9.90;99.90;;;;;;2089978;28;20028;-72
2022/10/20 00:26:42;;;;;;;10.20;6.40;;;9.80;99.90;;;;;;2089425;28;20035;-72
2022/10/20 00:27:43;;;;;;;8.65;7.00;;;9.80;99.90;;;;;;2090797;28;20073;-72
2022/10/20 00:28:44;;;;;;;12.40;7.15;;;9.80;99.90;;;;;;2088806;28;20025;-72
2022/10/20 00:29:46;;;;;;;9.10;6.53;;;9.80;99.90;;;;;;2089614;28;20021;-72
2022/10/20 00:30:52;;;;;;;8.27;6.97;;;9.80;99.90;;;;;;2092819;28;20028;-72
2022/10/20 00:31:53;;;;;;;12.30;7.13;;;9.90;99.90;;;;;;2090797;28;20037;-72
2022/10/20 00:32:53;;;;;;;10.25;6.63;;;9.90;99.90;;;;;;2091433;28;20151;-72
2022/10/20 00:33:54;;;;;;;10.35;7.00;;;9.90;99.90;;;;;;2090369;28;20033;-72
2022/10/20 00:34:55;;;;;;;8.73;6.50;;;9.90;99.90;;;;;;2089520;28;20032;-72
2022/10/20 00:35:58;;;;;;;10.38;7.50;;;9.80;99.90;;;;;;2091888;28;20033;-72
2022/10/20 00:36:59;;;;;;;12.02;6.43;;;9.90;99.90;;;;;;2091341;28;20114;-72
2022/10/20 00:37:59;;;;;;;9.80;6.47;;;9.90;99.90;;;;;;2089758;28;20033;-72
2022/10/20 00:39:02;;;;;;;8.73;6.65;;;9.80;99.90;;;;;;2092820;28;20052;-72
2022/10/20 00:40:03;;;;;;;10.27;7.28;;;9.80;99.90;;;;;;2090741;28;20021;-72
2022/10/20 00:41:05;;;;;;;8.35;7.03;;;9.80;99.90;;;;;;2091464;28;20054;-72
2022/10/20 00:42:05;;;;;;;9.63;5.70;;;9.80;99.90;;;;;;2090826;28;20096;-72
2022/10/20 00:43:11;;;;;;;11.23;7.60;;;9.90;99.90;;;;;;2092500;28;20025;-72
2022/10/20 00:44:46;;;;;;;7.00;6.38;;;9.80;99.90;;;;;;2091779;28;20112;-72
2022/10/20 00:45:53;;;;;;;10.38;6.47;;;9.80;99.90;;;;;;2090600;28;20151;-72
2022/10/20 00:46:56;;;;;;;13.30;6.18;;;9.80;99.90;;;;;;2090596;28;20048;-72
2022/10/20 00:48:25;;;;;;;10.85;6.95;;;9.80;99.90;;;;;;2089622;28;20017;-73
2022/10/20 00:49:25;;;;;;;10.80;6.80;;;9.80;99.90;;;;;;2087879;28;20043;-73
2022/10/20 00:50:28;;;;;;;7.85;7.10;;;9.80;99.90;;;;;;2090768;28;20852;-72
2022/10/20 00:51:31;;;;;;;5.93;5.43;;;9.70;99.90;;;;;;2090073;28;20036;-72
2022/10/20 00:52:33;;;;;;;8.98;6.03;;;9.80;99.90;;;;;;2091006;28;20021;-72
2022/10/20 00:53:34;;;;;;;8.18;5.50;;;9.80;99.90;;;;;;2090731;28;20020;-72
2022/10/20 00:54:35;;;;;;;8.75;6.43;;;9.80;99.90;;;;;;2090279;28;20040;-72
2022/10/20 00:55:39;;;;;;;8.27;7.13;;;9.80;99.90;;;;;;2090649;28;20158;-72
2022/10/20 00:56:43;;;;;;;7.28;6.30;;;9.70;99.90;;;;;;2089880;28;20016;-72
2022/10/20 00:57:47;;;;;;;9.18;6.93;;;9.80;99.90;;;;;;2091791;28;20430;-72
2022/10/20 00:58:48;;;;;;;7.07;5.82;;;9.80;99.90;;;;;;2090730;28;20021;-72
2022/10/20 00:59:49;;;;;;;10.60;7.15;;;9.70;99.90;;;;;;2090703;28;20037;-72
2022/10/20 01:00:54;;;;;;;10.52;6.82;;;9.70;99.90;;;;;;2088323;28;20531;-72
2022/10/20 01:01:55;;;;;;;9.02;6.60;;;9.70;99.90;;;;;;2091650;28;20094;-72
2022/10/20 01:03:00;;;;;;;7.22;6.53;;;9.70;99.90;;;;;;2091263;28;20029;-72
2022/10/20 01:04:01;;;;;;;9.23;6.32;;;9.70;99.90;;;;;;2090866;28;20021;-72
2022/10/20 01:05:02;;;;;;;8.38;6.10;;;9.70;99.90;;;;;;2090812;28;20071;-72
2022/10/20 01:06:03;;;;;;;7.85;6.97;;;9.70;99.90;;;;;;2090019;28;20021;-72
2022/10/20 01:07:04;;;;;;;17.60;6.70;;;9.70;99.90;;;;;;2091466;28;20029;-72
2022/10/20 01:08:05;;;;;;;8.20;6.43;;;9.70;99.90;;;;;;2090595;28;20032;-72
2022/10/20 01:09:06;;;;;;;9.30;6.00;;;9.70;99.90;;;;;;2090038;28;20052;-72
2022/10/20 01:10:08;;;;;;;6.63;5.65;;;9.70;99.90;;;;;;2089687;28;20689;-72
2022/10/20 01:11:34;;;;;;;7.80;5.53;;;9.70;99.90;;;;;;2089598;28;20604;-73
2022/10/20 01:12:49;;;;;;;6.63;5.90;;;9.70;99.90;;;;;;2090241;28;20411;-72
2022/10/20 01:14:22;;;;;;;8.02;5.25;;;9.70;99.90;;;;;;2088918;28;20057;-72
2022/10/20 01:15:41;;;;;;;6.68;4.97;;;9.60;99.90;;;;;;2091067;28;20116;-72
2022/10/20 01:16:57;;;;;;;5.80;5.18;;;9.60;99.90;;;;;;2090543;28;20503;-72
2022/10/20 01:18:09;;;;;;;9.30;6.60;;;9.60;99.90;;;;;;2092044;28;20163;-72
2022/10/20 01:19:28;;;;;;;6.18;5.15;;;9.60;99.90;;;;;;2091527;28;20025;-72
2022/10/20 01:20:31;;;;;;;8.50;5.63;;;9.60;99.90;;;;;;2088853;28;20024;-72
2022/10/20 01:21:55;;;;;;;6.78;5.50;;;9.50;99.90;;;;;;2090239;28;20499;-72
2022/10/20 01:23:32;;;;;;;7.07;5.90;;;9.50;99.90;;;;;;2090204;28;20487;-72
2022/10/20 01:24:54;;;;;;;8.98;5.63;;;9.50;99.90;;;;;;2090658;28;20017;-72
2022/10/20 01:26:16;;;;;;;8.23;6.28;;;9.50;99.90;;;;;;2089885;28;20044;-72
2022/10/20 01:27:31;;;;;;;7.50;6.78;;;9.40;99.90;;;;;;2090633;28;20024;-72
2022/10/20 01:28:50;;;;;;;10.65;6.53;;;9.40;99.90;;;;;;2093049;28;20021;-72
2022/10/20 01:30:09;;;;;;;9.93;6.70;;;9.40;99.90;;;;;;2091819;28;20017;-72
2022/10/20 01:31:27;;;;;;;10.25;7.13;;;9.40;99.90;;;;;;2092434;28;20020;-72
2022/10/20 01:32:46;;;;;;;7.45;6.40;;;9.40;99.90;;;;;;2090857;28;20055;-72
2022/10/20 01:34:07;;;;;;;8.63;6.60;;;9.40;99.90;;;;;;2090062;28;20052;-72
2022/10/20 01:35:15;;;;;;;8.70;6.70;;;9.40;99.90;;;;;;2090982;28;20772;-72
2022/10/20 01:36:27;;;;;;;6.40;5.45;;;9.30;99.90;;;;;;2089445;28;20572;-72
2022/10/20 01:37:37;;;;;;;8.63;7.00;;;9.40;99.90;;;;;;2090806;28;20029;-72
2022/10/20 01:38:54;;;;;;;11.50;6.60;;;9.30;99.90;;;;;;2090448;28;20027;-72
2022/10/20 01:40:15;;;;;;;8.85;6.93;;;9.30;99.90;;;;;;2090081;28;20044;-72
2022/10/20 01:41:38;;;;;;;8.85;5.75;;;9.30;99.90;;;;;;2089138;28;20132;-72
2022/10/20 01:42:41;;;;;;;6.50;5.80;;;9.30;99.90;;;;;;2089428;28;20025;-72
2022/10/20 01:43:44;;;;;;;10.35;6.80;;;9.30;99.90;;;;;;2091422;28;20131;-72
2022/10/20 01:44:46;;;;;;;10.52;7.65;;;9.30;99.90;;;;;;2091707;28;20017;-72
2022/10/20 01:45:49;;;;;;;8.13;7.32;;;9.30;99.90;;;;;;2090984;28;20020;-72
2022/10/20 01:46:51;;;;;;;7.85;7.05;;;9.30;99.90;;;;;;2090140;28;20025;-72
2022/10/20 01:47:53;;;;;;;13.55;7.65;;;9.30;99.90;;;;;;2088244;28;20145;-72
2022/10/20 01:48:54;;;;;;;8.13;6.65;;;9.30;99.90;;;;;;2094048;28;20021;-72
2022/10/20 01:49:56;;;;;;;9.27;6.70;;;9.40;99.90;;;;;;2095301;28;20046;-72
2022/10/20 01:50:58;;;;;;;7.30;6.38;;;9.40;99.90;;;;;;2091318;28;20116;-72
2022/10/20 01:51:59;;;;;;;9.45;6.82;;;9.30;99.90;;;;;;2090691;28;20091;-72
2022/10/20 01:53:01;;;;;;;6.22;5.65;;;9.40;99.90;;;;;;2090915;28;20078;-72
2022/10/20 01:54:01;;;;;;;11.05;6.68;;;9.40;99.90;;;;;;2090528;28;20028;-72
2022/10/20 01:55:12;;;;;;;8.52;6.80;;;9.40;99.90;;;;;;2090919;28;20823;-72
2022/10/20 01:56:26;;;;;;;12.85;7.18;;;9.40;99.90;;;;;;2088339;28;20078;-72
2022/10/20 01:57:32;;;;;;;8.32;6.88;;;9.40;99.90;;;;;;2089757;28;20063;-72
2022/10/20 01:58:38;;;;;;;13.68;7.35;;;9.30;99.90;;;;;;2089180;28;20029;-72
2022/10/20 02:00:07;;;;;;;13.13;7.78;;;9.30;99.90;;;;;;2091028;28;20036;-72
2022/10/20 02:01:38;;;;;;;11.98;7.10;;;9.30;99.90;;;;;;2089605;28;20116;-72
2022/10/20 02:02:59;;;;;;;14.02;6.70;;;9.30;99.90;;;;;;2089093;28;20240;-72
2022/10/20 02:04:02;;;;;;;6.95;6.25;;;9.30;99.90;;;;;;2090840;28;20017;-72
2022/10/20 02:05:31;;;;;;;13.48;7.25;;;9.30;99.90;;;;;;2090895;28;20032;-72
2022/10/20 02:06:32;;;;;;;10.18;5.43;;;9.30;99.90;;;;;;2085989;28;20025;-72
2022/10/20 02:07:33;;;;;;;7.65;6.22;;;9.30;99.90;;;;;;2090370;28;20082;-72
2022/10/20 02:08:48;;;;;;;8.52;5.78;;;9.30;99.90;;;;;;2090899;28;20028;-72
2022/10/20 02:09:52;;;;;;;7.45;5.43;;;9.30;99.90;;;;;;2092559;28;20423;-72
2022/10/20 02:10:59;;;;;;;5.63;4.80;;;9.30;99.90;;;;;;2093883;28;20040;-72
2022/10/20 02:12:05;;;;;;;8.25;6.55;;;9.30;99.90;;;;;;2093961;28;20072;-73
2022/10/20 02:13:06;;;;;;;6.95;5.85;;;9.30;99.90;;;;;;2092950;28;20060;-72
2022/10/20 02:14:11;;;;;;;6.20;5.57;;;9.30;99.90;;;;;;2091863;28;20063;-72
2022/10/20 02:15:18;;;;;;;6.35;5.72;;;9.30;99.90;;;;;;2086020;28;20018;-72
2022/10/20 02:16:32;;;;;;;6.40;5.47;;;9.30;99.90;;;;;;2093101;28;20422;-72
2022/10/20 02:17:36;;;;;;;6.00;5.40;;;9.30;99.90;;;;;;2092035;28;20083;-72
2022/10/20 02:18:42;;;;;;;6.22;5.05;;;9.20;99.90;;;;;;2090733;28;20029;-72
2022/10/20 02:19:44;;;;;;;5.53;5.00;;;9.20;99.90;;;;;;2093564;28;20479;-72
2022/10/20 02:20:51;;;;;;;7.88;5.50;;;9.20;99.90;;;;;;2091428;28;20048;-72
2022/10/20 02:21:53;;;;;;;6.88;5.22;;;9.30;99.90;;;;;;2092570;28;20040;-72
2022/10/20 02:22:56;;;;;;;7.65;5.68;;;9.20;99.90;;;;;;2093410;28;20036;-72
2022/10/20 02:24:02;;;;;;;6.35;5.75;;;9.20;99.90;;;;;;2091073;28;20484;-72
2022/10/20 02:25:03;;;;;;;7.93;6.65;;;9.20;99.90;;;;;;2091484;28;20025;-72
2022/10/20 02:26:11;;;;;;;9.02;7.28;;;9.20;99.90;;;;;;2092333;28;20020;-72
2022/10/20 02:27:23;;;;;;;8.93;6.75;;;9.20;99.90;;;;;;2091810;28;20595;-73
2022/10/20 02:28:25;;;;;;;10.43;6.82;;;9.20;99.90;;;;;;2092058;28;20429;-72
2022/10/20 02:29:29;;;;;;;7.63;6.00;;;9.20;99.90;;;;;;2092977;28;20037;-72
2022/10/20 02:30:30;;;;;;;9.60;6.85;;;9.20;99.90;;;;;;2093011;28;20082;-73
2022/10/20 02:31:31;;;;;;;11.07;6.72;;;9.20;99.90;;;;;;2093965;28;20025;-72
2022/10/20 02:32:34;;;;;;;7.60;6.65;;;9.20;99.90;;;;;;2090036;28;20028;-72
2022/10/20 02:33:35;;;;;;;8.40;6.25;;;9.10;99.90;;;;;;2091043;28;20477;-72
2022/10/20 02:34:36;;;;;;;8.25;6.78;;;9.10;99.90;;;;;;2091569;28;20075;-72
2022/10/20 02:35:36;;;;;;;9.57;7.22;;;9.20;99.90;;;;;;2091692;28;20824;-72
2022/10/20 02:36:39;;;;;;;9.93;6.45;;;9.20;99.90;;;;;;2093001;28;20035;-73
2022/10/20 02:37:40;;;;;;;6.55;5.93;;;9.20;99.90;;;;;;2091896;28;20510;-72
2022/10/20 02:38:41;;;;;;;7.32;5.38;;;9.20;99.90;;;;;;2091505;28;20467;-72
2022/10/20 02:39:41;;;;;;;12.93;6.65;;;9.10;99.90;;;;;;2090699;28;20029;-72
2022/10/20 02:40:42;;;;;;;8.23;5.88;;;9.10;99.90;;;;;;2092516;28;20039;-72
2022/10/20 02:41:42;;;;;;;9.10;6.90;;;9.10;99.90;;;;;;2091426;28;20108;-72
2022/10/20 02:42:43;;;;;;;9.52;7.20;;;9.10;99.90;;;;;;2092891;28;20024;-72
2022/10/20 02:43:43;;;;;;;6.40;5.80;;;9.10;99.90;;;;;;2091845;28;20025;-72
2022/10/20 02:44:44;;;;;;;6.95;6.30;;;9.10;99.90;;;;;;2085074;28;20021;-72
2022/10/20 02:45:44;;;;;;;9.38;5.75;;;9.20;99.90;;;;;;2090451;28;20100;-72
2022/10/20 02:46:45;;;;;;;11.90;6.97;;;9.20;99.90;;;;;;2091084;28;20075;-72
2022/10/20 02:47:45;;;;;;;6.75;5.68;;;9.20;99.90;;;;;;2093868;28;20468;-72
2022/10/20 02:48:46;;;;;;;11.73;6.82;;;9.10;99.90;;;;;;2092929;28;20122;-72
2022/10/20 02:49:47;;;;;;;7.68;6.50;;;9.10;99.90;;;;;;2093571;28;20020;-72
2022/10/20 02:50:48;;;;;;;6.95;6.00;;;9.10;99.90;;;;;;2092605;28;20060;-72
2022/10/20 02:51:48;;;;;;;10.48;7.38;;;9.10;99.90;;;;;;2091340;28;20036;-72
2022/10/20 02:52:49;;;;;;;10.23;6.93;;;9.10;99.90;;;;;;2091045;28;20111;-72
2022/10/20 02:53:49;;;;;;;10.20;8.18;;;9.10;99.90;;;;;;2090180;28;20024;-72
2022/10/20 02:54:50;;;;;;;6.63;5.60;;;9.10;99.90;;;;;;2091199;28;20147;-72
2022/10/20 02:55:50;;;;;;;8.75;5.20;;;9.10;99.90;;;;;;2092447;28;20116;-72
2022/10/20 02:56:51;;;;;;;9.70;7.13;;;9.10;99.90;;;;;;2090632;28;20032;-72
2022/10/20 02:57:52;;;;;;;10.30;7.03;;;9.10;99.90;;;;;;2092818;28;20044;-72
2022/10/20 02:58:53;;;;;;;10.63;6.70;;;9.10;99.90;;;;;;2090827;28;20021;-72
2022/10/20 02:59:53;;;;;;;10.15;6.60;;;9.10;99.90;;;;;;2090216;28;20029;-72
2022/10/20 03:00:54;;;;;;;7.57;5.65;;;9.10;99.90;;;;;;2089540;28;20068;-72
2022/10/20 03:01:55;;;;;;;10.65;7.13;;;9.10;99.90;;;;;;2092101;28;20036;-72
2022/10/20 03:02:56;;;;;;;7.47;6.65;;;9.10;99.90;;;;;;2091979;28;20158;-72
2022/10/20 03:03:58;;;;;;;10.73;7.53;;;9.10;99.90;;;;;;2091921;28;20036;-72
2022/10/20 03:04:59;;;;;;;8.88;6.72;;;9.10;99.90;;;;;;2092126;28;20527;-72
2022/10/20 03:06:10;;;;;;;10.95;8.02;;;9.10;99.90;;;;;;2091168;28;20487;-72
2022/10/20 03:07:11;;;;;;;8.68;7.32;;;9.10;99.90;;;;;;2091571;28;20032;-72
2022/10/20 03:08:12;;;;;;;7.90;6.32;;;9.10;99.90;;;;;;2091541;28;20025;-72
2022/10/20 03:09:12;;;;;;;8.30;5.90;;;9.10;99.90;;;;;;2090605;28;20032;-72
2022/10/20 03:10:13;;;;;;;7.82;6.47;;;9.10;99.90;;;;;;2090978;28;20029;-72
2022/10/20 03:11:13;;;;;;;8.93;6.22;;;9.10;99.90;;;;;;2091858;28;20388;-72
2022/10/20 03:12:14;;;;;;;7.80;5.18;;;9.10;99.90;;;;;;2091688;28;20052;-72
2022/10/20 03:13:14;;;;;;;8.77;5.90;;;9.10;99.90;;;;;;2089502;28;20024;-72
2022/10/20 03:14:15;;;;;;;8.95;5.68;;;9.10;99.90;;;;;;2091760;28;20033;-73
2022/10/20 03:15:16;;;;;;;6.30;5.70;;;9.10;99.90;;;;;;2091700;28;20048;-72
2022/10/20 03:16:16;;;;;;;8.32;6.10;;;9.10;99.90;;;;;;2091537;28;20016;-72
2022/10/20 03:17:17;;;;;;;7.82;7.03;;;9.10;99.90;;;;;;2089775;28;20027;-72
2022/10/20 03:18:17;;;;;;;7.20;6.50;;;9.10;99.90;;;;;;2092162;28;20021;-72
2022/10/20 03:19:18;;;;;;;7.68;6.60;;;9.10;99.90;;;;;;2092005;28;20112;-72
2022/10/20 03:20:18;;;;;;;10.95;8.02;;;9.10;99.90;;;;;;2089636;28;20040;-72
2022/10/20 03:21:19;;;;;;;9.48;6.57;;;9.10;99.90;;;;;;2091609;28;20025;-72
2022/10/20 03:22:20;;;;;;;6.05;5.55;;;9.10;99.90;;;;;;2090155;28;20031;-72
2022/10/20 03:23:21;;;;;;;8.18;5.70;;;9.10;99.90;;;;;;2091907;28;20063;-72
2022/10/20 03:24:21;;;;;;;8.38;6.57;;;9.10;99.90;;;;;;2089164;28;20032;-72
2022/10/20 03:25:22;;;;;;;7.45;5.40;;;9.10;99.90;;;;;;2092270;28;20111;-72
2022/10/20 03:26:22;;;;;;;9.45;6.00;;;9.10;99.90;;;;;;2089713;28;20029;-72
2022/10/20 03:27:23;;;;;;;7.60;6.78;;;9.10;99.90;;;;;;2094176;28;20031;-72
2022/10/20 03:28:23;;;;;;;7.13;6.05;;;9.10;99.90;;;;;;2091274;28;20582;-72
2022/10/20 03:29:24;;;;;;;6.82;5.97;;;9.10;99.90;;;;;;2091962;28;20036;-74
2022/10/20 03:30:24;;;;;;;7.45;6.15;;;9.10;99.90;;;;;;2092486;28;20107;-72
2022/10/20 03:31:25;;;;;;;7.30;5.43;;;9.10;99.90;;;;;;2090390;28;20087;-72
2022/10/20 03:32:26;;;;;;;8.02;5.68;;;9.10;99.90;;;;;;2092961;28;20400;-72
2022/10/20 03:33:26;;;;;;;6.72;5.90;;;9.10;99.90;;;;;;2092201;28;20094;-72
2022/10/20 03:34:27;;;;;;;7.07;6.30;;;9.10;99.90;;;;;;2090782;28;20583;-72
2022/10/20 03:35:27;;;;;;;6.45;5.75;;;9.10;99.90;;;;;;2091683;28;20036;-72
2022/10/20 03:36:28;;;;;;;6.15;5.55;;;9.10;99.90;;;;;;2090478;28;20021;-72
2022/10/20 03:37:28;;;;;;;7.82;7.03;;;9.10;99.90;;;;;;2091272;28;20025;-72
2022/10/20 03:38:29;;;;;;;8.70;6.70;;;9.10;99.90;;;;;;2089200;28;20099;-72
2022/10/20 03:39:29;;;;;;;10.73;6.70;;;9.10;99.90;;;;;;2089865;28;20025;-72
2022/10/20 03:40:30;;;;;;;10.15;6.40;;;9.10;99.90;;;;;;2092134;28;20483;-72
2022/10/20 03:41:30;;;;;;;8.02;6.93;;;9.10;99.90;;;;;;2090088;28;20491;-72
2022/10/20 03:42:31;;;;;;;7.93;6.90;;;9.10;99.90;;;;;;2089225;28;20471;-72
2022/10/20 03:43:31;;;;;;;9.25;5.80;;;9.00;99.90;;;;;;2091759;28;20021;-72
2022/10/20 03:44:32;;;;;;;6.50;5.90;;;9.10;99.90;;;;;;2090968;28;20036;-72
2022/10/20 03:45:33;;;;;;;8.45;6.68;;;9.00;99.90;;;;;;2090039;28;20177;-72
2022/10/20 03:46:33;;;;;;;6.55;5.90;;;9.10;99.90;;;;;;2091334;28;20024;-72
2022/10/20 03:47:34;;;;;;;7.70;6.22;;;9.00;99.90;;;;;;2090294;28;20024;-72
2022/10/20 03:48:36;;;;;;;7.60;6.90;;;9.00;99.90;;;;;;2093271;28;20059;-72
2022/10/20 03:49:37;;;;;;;7.13;6.43;;;9.00;99.90;;;;;;2092299;28;20069;-72
2022/10/20 03:50:39;;;;;;;6.13;5.53;;;9.00;99.90;;;;;;2093075;28;20123;-72
2022/10/20 03:51:39;;;;;;;10.52;6.40;;;9.10;99.90;;;;;;2092372;28;20020;-72
2022/10/20 03:52:40;;;;;;;11.80;7.18;;;9.00;99.90;;;;;;2089256;28;20073;-72
2022/10/20 03:53:40;;;;;;;7.28;6.50;;;9.10;99.90;;;;;;2090643;28;20436;-72
2022/10/20 03:54:41;;;;;;;8.07;5.90;;;9.00;99.90;;;;;;2090020;28;20533;-72
2022/10/20 03:55:41;;;;;;;7.75;6.45;;;9.10;99.90;;;;;;2089991;28;20100;-72
2022/10/20 03:56:42;;;;;;;8.60;6.35;;;9.10;99.90;;;;;;2090909;28;20032;-72
2022/10/20 03:57:43;;;;;;;9.15;7.00;;;9.10;99.90;;;;;;2089731;28;20028;-72
2022/10/20 03:58:43;;;;;;;6.22;5.20;;;9.00;99.90;;;;;;2090056;28;20025;-72
2022/10/20 03:59:44;;;;;;;8.02;6.35;;;9.00;99.90;;;;;;2090541;28;20033;-72
2022/10/20 04:00:45;;;;;;;7.82;6.72;;;9.00;99.90;;;;;;2090723;28;20585;-72
2022/10/20 04:01:47;;;;;;;10.30;7.25;;;9.00;99.90;;;;;;2089733;28;20397;-72
2022/10/20 04:02:48;;;;;;;8.60;6.93;;;9.00;99.90;;;;;;2092367;28;20417;-72
2022/10/20 04:03:48;;;;;;;8.73;6.30;;;9.00;99.90;;;;;;2090087;28;20033;-72
2022/10/20 04:04:49;;;;;;;9.57;7.93;;;9.00;99.90;;;;;;2091224;28;20047;-72
2022/10/20 04:05:49;;;;;;;7.30;6.28;;;9.00;99.90;;;;;;2089850;28;20071;-72
2022/10/20 04:06:50;;;;;;;11.15;5.97;;;9.00;99.90;;;;;;2093016;28;20029;-72
2022/10/20 04:07:50;;;;;;;8.75;6.30;;;9.00;99.90;;;;;;2092658;28;20033;-72
2022/10/20 04:08:51;;;;;;;10.10;7.28;;;9.00;99.90;;;;;;2091956;28;20107;-72
2022/10/20 04:09:51;;;;;;;9.30;7.78;;;9.00;99.90;;;;;;2091868;28;20032;-72
2022/10/20 04:10:52;;;;;;;8.48;7.68;;;9.00;99.90;;;;;;2091405;28;20040;-72
2022/10/20 04:11:52;;;;;;;11.77;6.20;;;9.00;99.90;;;;;;2091454;28;20854;-72
2022/10/20 04:12:57;;;;;;;11.25;7.55;;;9.00;99.90;;;;;;2091748;28;20422;-72
2022/10/20 04:13:58;;;;;;;8.05;7.25;;;9.00;99.90;;;;;;2090977;28;20028;-72
2022/10/20 04:14:58;;;;;;;5.88;5.38;;;9.00;99.90;;;;;;2092551;28;20024;-72
2022/10/20 04:15:59;;;;;;;8.15;6.38;;;9.00;99.90;;;;;;2090910;28;20033;-72
2022/10/20 04:16:59;;;;;;;6.25;5.65;;;9.00;99.90;;;;;;2091053;28;20029;-72
2022/10/20 04:18:00;;;;;;;7.85;6.57;;;9.00;99.90;;;;;;2092550;28;20017;-72
2022/10/20 04:19:00;;;;;;;8.98;7.10;;;9.00;99.90;;;;;;2090266;28;20086;-72
2022/10/20 04:20:02;;;;;;;8.75;7.60;;;9.00;99.90;;;;;;2090166;28;20033;-73
2022/10/20 04:21:03;;;;;;;8.65;7.40;;;9.00;99.90;;;;;;2090724;28;20800;-72
2022/10/20 04:22:03;;;;;;;8.75;7.78;;;9.00;99.90;;;;;;2090942;28;20112;-72
2022/10/20 04:23:04;;;;;;;9.38;6.60;;;9.00;99.90;;;;;;2090914;28;20025;-72
2022/10/20 04:24:06;;;;;;;8.23;7.35;;;9.00;99.90;;;;;;2093513;28;20912;-72
2022/10/20 04:25:07;;;;;;;7.15;6.45;;;9.00;99.90;;;;;;2092132;28;20029;-72
2022/10/20 04:26:13;;;;;;;10.23;6.95;;;8.90;99.90;;;;;;2090961;28;20055;-72
2022/10/20 04:27:13;;;;;;;10.07;7.15;;;9.00;99.90;;;;;;2091506;28;20024;-72
2022/10/20 04:28:16;;;;;;;8.73;6.82;;;9.00;99.90;;;;;;2089605;28;20035;-72
2022/10/20 04:29:16;;;;;;;7.05;6.38;;;9.00;99.90;;;;;;2090041;28;20415;-72
2022/10/20 04:30:17;;;;;;;7.10;6.40;;;8.90;99.90;;;;;;2091543;28;20107;-72
2022/10/20 04:31:17;;;;;;;8.13;7.20;;;9.00;99.90;;;;;;2090384;28;20079;-72
2022/10/20 04:32:18;;;;;;;10.25;6.80;;;9.00;99.90;;;;;;2090763;28;20051;-73
2022/10/20 04:33:18;;;;;;;8.77;6.90;;;9.00;99.90;;;;;;2091398;28;20044;-72
2022/10/20 04:34:19;;;;;;;9.60;6.70;;;9.00;99.90;;;;;;2090674;28;20566;-72
2022/10/20 04:35:20;;;;;;;5.82;5.28;;;9.00;99.90;;;;;;2091312;28;20029;-72
2022/10/20 04:36:20;;;;;;;10.25;6.05;;;9.00;99.90;;;;;;2089494;28;20028;-72
2022/10/20 04:37:21;;;;;;;8.32;6.80;;;9.00;99.90;;;;;;2090250;28;20025;-72
2022/10/20 04:38:21;;;;;;;9.68;6.63;;;9.00;99.90;;;;;;2092579;28;20052;-72
2022/10/20 04:39:22;;;;;;;8.50;5.63;;;9.00;99.90;;;;;;2090877;28;20025;-72
2022/10/20 04:40:22;;;;;;;8.27;6.88;;;9.00;99.90;;;;;;2091869;28;20108;-72
2022/10/20 04:41:23;;;;;;;6.93;6.10;;;9.00;99.90;;;;;;2090856;28;20025;-72
2022/10/20 04:42:24;;;;;;;7.32;6.15;;;9.00;99.90;;;;;;2092423;28;20021;-72
2022/10/20 04:43:25;;;;;;;13.05;7.63;;;9.00;99.90;;;;;;2090323;28;20092;-73
2022/10/20 04:44:25;;;;;;;7.35;6.63;;;9.00;99.90;;;;;;2089145;28;20025;-73
2022/10/20 04:45:26;;;;;;;9.20;8.30;;;9.00;99.90;;;;;;2091740;28;20396;-72
2022/10/20 04:46:27;;;;;;;10.68;6.93;;;9.00;99.90;;;;;;2090281;28;20021;-73
2022/10/20 04:47:31;;;;;;;6.68;6.03;;;9.00;99.90;;;;;;2092006;28;20052;-73
2022/10/20 04:48:32;;;;;;;7.25;6.55;;;9.00;99.90;;;;;;2090449;28;20096;-72
2022/10/20 04:49:33;;;;;;;9.90;6.95;;;9.00;99.90;;;;;;2090841;28;20035;-72
2022/10/20 04:50:33;;;;;;;8.20;6.45;;;9.00;99.90;;;;;;2090742;28;20031;-72
2022/10/20 04:51:34;;;;;;;8.00;7.20;;;9.00;99.90;;;;;;2089652;28;20033;-73
2022/10/20 04:52:34;;;;;;;10.13;7.28;;;9.00;99.90;;;;;;2089969;28;20031;-72
2022/10/20 04:53:35;;;;;;;7.13;6.53;;;9.00;99.90;;;;;;2090284;28;20037;-72
2022/10/20 04:54:36;;;;;;;9.02;7.10;;;9.00;99.90;;;;;;2090981;28;20036;-72
2022/10/20 04:55:36;;;;;;;8.95;7.95;;;9.00;99.90;;;;;;2089859;28;20048;-72
2022/10/20 04:56:37;;;;;;;7.93;7.03;;;9.00;99.90;;;;;;2089145;28;20060;-73
2022/10/20 04:57:38;;;;;;;8.23;6.65;;;9.00;99.90;;;;;;2090396;28;20112;-72
2022/10/20 04:58:39;;;;;;;6.88;6.20;;;9.00;99.90;;;;;;2090884;28;20031;-72
2022/10/20 04:59:39;;;;;;;9.02;6.90;;;9.00;99.90;;;;;;2089857;28;20052;-72
2022/10/20 05:00:40;;;;;;;9.15;7.32;;;9.00;99.90;;;;;;2089604;28;20029;-72
2022/10/20 05:01:40;;;;;;;9.63;7.32;;;9.00;99.90;;;;;;2090668;28;20042;-72
2022/10/20 05:02:41;;;;;;;8.35;5.93;;;9.00;99.90;;;;;;2090953;28;20048;-72
2022/10/20 05:03:41;;;;;;;10.20;6.85;;;9.00;99.90;;;;;;2090765;28;20532;-72
2022/10/20 05:04:42;;;;;;;8.18;7.43;;;9.00;99.90;;;;;;2089016;28;20415;-72
2022/10/20 05:05:42;;;;;;;7.53;5.80;;;9.00;99.90;;;;;;2090290;28;20104;-72
2022/10/20 05:06:43;;;;;;;8.75;7.07;;;9.00;99.90;;;;;;2091564;28;20017;-72
2022/10/20 05:07:43;;;;;;;8.30;7.60;;;9.00;99.90;;;;;;2090339;28;20096;-72
2022/10/20 05:08:46;;;;;;;7.68;6.85;;;9.00;99.90;;;;;;2091050;28;20017;-72
2022/10/20 05:09:47;;;;;;;9.65;8.27;;;9.00;99.90;;;;;;2091003;28;20029;-72
2022/10/20 05:10:47;;;;;;;9.00;7.07;;;9.00;99.90;;;;;;2090008;28;20028;-73
2022/10/20 05:11:48;;;;;;;12.48;8.10;;;9.00;99.90;;;;;;2088693;28;20500;-72
2022/10/20 05:12:48;;;;;;;7.47;6.57;;;9.00;99.90;;;;;;2090110;28;20043;-72
2022/10/20 05:13:49;;;;;;;8.75;7.90;;;9.10;99.90;;;;;;2091546;28;20050;-73
2022/10/20 05:14:49;;;;;;;11.02;7.07;;;9.00;99.90;;;;;;2089952;28;20035;-72
2022/10/20 05:15:53;;;;;;;11.07;8.20;;;9.00;99.90;;;;;;2089750;28;20372;-72
2022/10/20 05:16:54;;;;;;;10.93;8.05;;;9.10;99.90;;;;;;2089173;28;20103;-72
2022/10/20 05:17:54;;;;;;;8.55;6.93;;;9.00;99.90;;;;;;2091768;28;20036;-72
2022/10/20 05:18:56;;;;;;;8.18;6.80;;;9.10;99.90;;;;;;2089581;28;20107;-72
2022/10/20 05:19:57;;;;;;;7.90;7.20;;;9.10;99.90;;;;;;2090284;28;20055;-72
2022/10/20 05:20:58;;;;;;;9.45;7.70;;;9.00;99.90;;;;;;2090129;28;20020;-72
2022/10/20 05:21:58;;;;;;;9.20;8.30;;;9.00;99.90;;;;;;2091630;28;20066;-73
2022/10/20 05:22:59;;;;;;;11.23;8.77;;;9.10;99.90;;;;;;2089494;28;20064;-72
2022/10/20 05:24:02;;;;;;;11.02;8.80;;;9.10;99.90;;;;;;2088781;28;20094;-73
2022/10/20 05:25:03;;;;;;;9.70;8.40;;;9.10;99.90;;;;;;2090423;28;20017;-72
2022/10/20 05:26:06;;;;;;;12.57;8.85;;;9.10;99.90;;;;;;2089000;28;20060;-72
2022/10/20 05:27:06;;;;;;;12.68;8.35;;;9.10;99.90;;;;;;2088543;28;20025;-72
2022/10/20 05:28:07;;;;;;;10.52;8.70;;;9.10;99.90;;;;;;2089379;28;20103;-72
2022/10/20 05:29:09;;;;;;;9.63;8.57;;;9.10;99.90;;;;;;2092836;28;20024;-72
2022/10/20 05:30:10;;;;;;;15.13;8.73;;;9.10;99.90;;;;;;2091183;28;20043;-73
2022/10/20 05:31:11;;;;;;;12.02;9.38;;;9.10;99.90;;;;;;2089525;28;20028;-72
2022/10/20 05:32:11;;;;;;;9.85;8.35;;;9.10;99.90;;;;;;2088755;28;20040;-72